Terminal Aerodrome Forecast
Issued by NWS

Home | Current Version | Previous Version | Text Only | Print | Product List | Glossary On
Versions: 1 2 3 4 5 6 7 8 9 10 11 12 13 14 15 16 17 18 19 20 21 22 23 24 25 26 27
000
FTUS43 KDVN 281130
TAFCID
TAF
KCID 281130Z 2812/2912 16007KT 4SM MIFG BKN001
      TEMPO 2812/2813 6SM BR FEW001
     FM281300 18008KT 6SM BR SCT010 BKN200
     FM281900 19013KT P6SM VCTS SCT030CB BKN200
      TEMPO 2820/2822 VRB20G30KT 3SM TSRA BR BKN020CB
     FM290000 21008KT P6SM SCT030 BKN200
     FM290900 25006KT 6SM BR SCT020 BKN035=

USA.gov is the U.S. government's official web portal to all federal, state and local government web resources and services.